Time;durP1;ratioP1;P1;durP2;ratioP2;P2;SDS_P1;SDS_P2;PMS_P1;PMS_P2;Temp;Humidity;BMP_temperature;BMP_pressure;BME280_temperature;BME280_humidity;BME280_pressure;Samples;Min_cycle;Max_cycle;Signal;HPM_P1;HPM_P2
2021/06/20 00:01:12;;;;;;;48.83;31.27;;;16.20;92.10;;;;;;5051942;28;20586;-73
2021/06/20 00:03:38;;;;;;;48.00;32.50;;;16.20;92.20;;;;;;5055248;28;20111;-76
2021/06/20 00:06:38;;;;;;;44.17;29.60;;;16.30;92.20;;;;;;5069689;28;20025;-72
2021/06/20 00:09:10;;;;;;;44.92;31.10;;;16.30;92.10;;;;;;5064120;28;20045;-75
2021/06/20 00:11:39;;;;;;;43.42;30.27;;;16.40;92.00;;;;;;5044816;28;20036;-73
2021/06/20 00:14:06;;;;;;;45.53;30.85;;;16.40;91.90;;;;;;5067354;28;20492;-72
2021/06/20 00:16:32;;;;;;;45.08;31.50;;;16.40;91.80;;;;;;5063796;28;20047;-75
2021/06/20 00:18:58;;;;;;;44.25;31.58;;;16.40;91.80;;;;;;5064854;28;20471;-73
2021/06/20 00:21:24;;;;;;;43.80;31.90;;;16.40;91.70;;;;;;5045552;28;20048;-72
2021/06/20 00:23:50;;;;;;;47.60;31.55;;;16.30;92.00;;;;;;5057242;28;20029;-72
2021/06/20 00:26:16;;;;;;;50.20;34.03;;;16.40;92.00;;;;;;5061274;28;20052;-73
2021/06/20 00:28:42;;;;;;;46.15;32.83;;;16.40;92.10;;;;;;5066962;28;20068;-74
2021/06/20 00:31:08;;;;;;;47.60;32.53;;;16.50;92.10;;;;;;5067463;28;20068;-74
2021/06/20 00:33:34;;;;;;;46.83;33.75;;;16.50;92.10;;;;;;5064786;28;20037;-73
2021/06/20 00:35:59;;;;;;;49.42;32.42;;;16.50;92.00;;;;;;5062788;28;20025;-73
2021/06/20 00:38:26;;;;;;;50.40;33.92;;;16.40;91.80;;;;;;5069810;28;20043;-73
2021/06/20 00:40:51;;;;;;;45.92;31.85;;;16.50;92.00;;;;;;5067783;28;20135;-78
2021/06/20 00:43:17;;;;;;;48.25;33.75;;;16.60;92.10;;;;;;5069667;28;20183;-76
2021/06/20 00:45:44;;;;;;;46.92;33.10;;;16.60;92.00;;;;;;5047096;28;20107;-77
2021/06/20 00:48:09;;;;;;;48.22;33.50;;;16.60;91.80;;;;;;5066927;28;20045;-73
2021/06/20 00:50:35;;;;;;;48.03;33.53;;;16.60;91.70;;;;;;5062905;28;20098;-72
2021/06/20 00:53:02;;;;;;;51.08;34.03;;;16.60;91.90;;;;;;5065949;28;20488;-72
2021/06/20 00:55:29;;;;;;;47.95;34.40;;;16.60;91.70;;;;;;5068336;28;20067;-73
2021/06/20 00:57:58;;;;;;;49.58;34.53;;;16.70;91.80;;;;;;5046851;28;20062;-72
2021/06/20 01:00:23;;;;;;;47.75;33.83;;;16.70;91.80;;;;;;5066355;28;20032;-79
2021/06/20 01:02:49;;;;;;;46.10;33.80;;;16.80;91.80;;;;;;5065587;28;20032;-74
2021/06/20 01:05:15;;;;;;;52.83;36.95;;;16.80;91.80;;;;;;5063789;28;20036;-75
2021/06/20 01:07:41;;;;;;;53.95;37.03;;;16.80;91.90;;;;;;5066276;28;20483;-73
2021/06/20 01:10:09;;;;;;;53.95;38.38;;;16.90;91.90;;;;;;5061645;28;20098;-73
2021/06/20 01:12:36;;;;;;;55.97;38.45;;;16.80;91.80;;;;;;5049719;28;20058;-75
2021/06/20 01:15:04;;;;;;;51.78;36.40;;;16.90;91.80;;;;;;5047086;28;20373;-74
2021/06/20 01:17:29;;;;;;;52.22;37.63;;;16.90;91.90;;;;;;5042282;28;20032;-73
2021/06/20 01:19:55;;;;;;;55.90;39.60;;;17.00;91.80;;;;;;5064320;28;20451;-73
2021/06/20 01:22:41;;;;;;;53.60;39.72;;;17.00;91.80;;;;;;5063743;28;20732;-73
2021/06/20 01:25:15;;;;;;;50.90;37.42;;;17.10;91.90;;;;;;5042935;28;20033;-73
2021/06/20 01:27:52;;;;;;;52.25;36.95;;;17.10;91.80;;;;;;5066712;28;20056;-73
2021/06/20 01:30:24;;;;;;;49.88;36.60;;;17.10;91.70;;;;;;5047179;28;20074;-73
2021/06/20 01:32:51;;;;;;;58.35;41.60;;;17.10;91.70;;;;;;5061893;28;20037;-78
2021/06/20 01:35:18;;;;;;;53.80;39.05;;;17.10;91.60;;;;;;5066608;28;20044;-73
2021/06/20 01:37:44;;;;;;;52.78;37.40;;;17.10;91.60;;;;;;5064231;28;20484;-73
2021/06/20 01:40:12;;;;;;;56.53;40.70;;;17.10;91.60;;;;;;5063767;28;20036;-75
2021/06/20 01:42:38;;;;;;;51.47;37.30;;;17.10;91.50;;;;;;5059846;28;20072;-83
2021/06/20 01:45:05;;;;;;;57.75;41.28;;;17.10;91.50;;;;;;5066231;28;20111;-73
2021/06/20 01:47:32;;;;;;;65.57;43.30;;;17.10;91.40;;;;;;5063536;28;20032;-73
2021/06/20 01:50:03;;;;;;;62.70;42.47;;;17.10;91.40;;;;;;5067866;28;20048;-74
2021/06/20 01:52:29;;;;;;;65.68;43.53;;;17.10;91.30;;;;;;5065847;28;20046;-75
2021/06/20 01:54:55;;;;;;;60.28;42.70;;;17.10;91.40;;;;;;5066435;28;20480;-74
2021/06/20 01:57:30;;;;;;;63.55;43.72;;;17.10;91.30;;;;;;5044044;28;26433;-75
2021/06/20 01:59:57;;;;;;;63.05;42.53;;;17.10;91.20;;;;;;5065283;28;20039;-74
2021/06/20 02:02:26;;;;;;;60.53;41.70;;;17.10;91.30;;;;;;5060513;28;20126;-74
2021/06/20 02:04:54;;;;;;;63.13;42.38;;;17.10;91.30;;;;;;5066301;28;20116;-79
2021/06/20 02:07:21;;;;;;;62.25;40.78;;;17.10;91.20;;;;;;5065121;28;20510;-73
2021/06/20 02:09:48;;;;;;;54.90;38.13;;;17.00;91.30;;;;;;5063450;28;20032;-72
2021/06/20 02:12:15;;;;;;;53.35;36.88;;;17.10;91.40;;;;;;5046340;28;20040;-76
2021/06/20 02:14:42;;;;;;;47.35;34.38;;;17.10;91.40;;;;;;5064303;28;20048;-73
2021/06/20 02:17:23;;;;;;;51.67;36.17;;;17.00;91.20;;;;;;5046708;28;20043;-73
2021/06/20 02:19:51;;;;;;;42.88;32.00;;;16.90;91.20;;;;;;5059815;28;20040;-73
2021/06/20 02:22:18;;;;;;;45.85;34.08;;;16.90;91.40;;;;;;5063713;28;20041;-78
2021/06/20 02:24:44;;;;;;;46.58;34.80;;;17.00;91.40;;;;;;5065004;28;20058;-73
2021/06/20 02:27:12;;;;;;;47.70;34.33;;;16.90;91.40;;;;;;5045229;28;20032;-73
2021/06/20 02:29:38;;;;;;;46.70;33.33;;;16.90;91.30;;;;;;5061924;28;20044;-79
2021/06/20 02:32:05;;;;;;;41.60;31.00;;;17.00;91.30;;;;;;5066560;28;20025;-74
2021/06/20 02:34:31;;;;;;;41.40;32.60;;;17.00;91.30;;;;;;5061579;28;20032;-74
2021/06/20 02:36:56;;;;;;;47.30;33.42;;;17.00;91.20;;;;;;5065870;28;20094;-73
2021/06/20 02:39:22;;;;;;;48.50;34.85;;;16.90;91.30;;;;;;5066957;28;20032;-76
2021/06/20 02:41:50;;;;;;;50.63;35.80;;;16.90;91.40;;;;;;5062877;28;20048;-73
2021/06/20 02:44:16;;;;;;;51.35;37.40;;;16.90;91.50;;;;;;5065602;28;20044;-72
2021/06/20 02:46:42;;;;;;;54.72;40.15;;;17.00;91.50;;;;;;5056724;28;20128;-74
2021/06/20 02:49:08;;;;;;;57.35;42.10;;;16.90;91.40;;;;;;5042795;28;20134;-73
2021/06/20 02:51:34;;;;;;;54.55;39.78;;;16.90;91.40;;;;;;5063312;28;20041;-74
2021/06/20 02:53:59;;;;;;;53.30;41.75;;;16.90;91.50;;;;;;5059988;28;20040;-73
2021/06/20 02:56:25;;;;;;;57.20;41.38;;;16.90;91.30;;;;;;5066689;28;20055;-73
2021/06/20 02:58:51;;;;;;;58.78;43.38;;;16.90;91.50;;;;;;5063088;28;20098;-74
2021/06/20 03:01:16;;;;;;;55.58;41.10;;;16.90;91.40;;;;;;5066386;28;20434;-72
2021/06/20 03:03:42;;;;;;;57.00;42.53;;;16.90;91.50;;;;;;5063936;28;20404;-75
2021/06/20 03:06:08;;;;;;;54.10;40.35;;;17.00;91.50;;;;;;5063113;28;20068;-73
2021/06/20 03:08:33;;;;;;;50.58;39.10;;;17.00;91.50;;;;;;5062152;28;20395;-76
2021/06/20 03:10:59;;;;;;;53.17;39.17;;;17.00;91.50;;;;;;5059108;28;20087;-80
2021/06/20 03:13:25;;;;;;;55.28;41.85;;;17.00;91.40;;;;;;5065900;28;21003;-73
2021/06/20 03:15:51;;;;;;;46.47;36.38;;;17.10;91.50;;;;;;5062893;28;20132;-72
2021/06/20 03:18:16;;;;;;;53.80;41.78;;;17.10;91.50;;;;;;5061252;28;20044;-77
2021/06/20 03:20:42;;;;;;;45.88;36.63;;;17.10;91.40;;;;;;5065069;28;20064;-73
2021/06/20 03:23:10;;;;;;;53.78;40.05;;;17.10;91.30;;;;;;5041858;28;20037;-77
2021/06/20 03:25:38;;;;;;;51.08;39.63;;;17.10;91.20;;;;;;5046979;28;20033;-74
2021/06/20 03:28:04;;;;;;;48.85;38.88;;;17.10;91.00;;;;;;5060937;28;20036;-73
2021/06/20 03:30:30;;;;;;;45.38;36.20;;;17.10;91.00;;;;;;5062604;28;20063;-76
2021/06/20 03:32:55;;;;;;;45.72;37.22;;;17.10;91.00;;;;;;5062641;28;20036;-74
2021/06/20 03:35:21;;;;;;;50.13;38.40;;;17.10;91.00;;;;;;5067080;28;20068;-73
2021/06/20 03:37:47;;;;;;;46.00;37.38;;;17.10;91.00;;;;;;5064502;28;20479;-73
2021/06/20 03:40:13;;;;;;;46.20;37.20;;;17.10;91.00;;;;;;5057309;28;20043;-72
2021/06/20 03:42:39;;;;;;;42.58;34.75;;;17.10;90.90;;;;;;5058803;28;20062;-76
2021/06/20 03:45:08;;;;;;;48.92;37.58;;;17.10;91.00;;;;;;5063163;28;20108;-75
2021/06/20 03:47:34;;;;;;;49.55;39.53;;;17.20;91.00;;;;;;5066047;28;20047;-72
2021/06/20 03:50:00;;;;;;;48.63;38.13;;;17.20;91.00;;;;;;5062887;28;20048;-74
2021/06/20 03:52:25;;;;;;;46.75;38.35;;;17.30;91.00;;;;;;5063915;28;20512;-75
2021/06/20 03:54:52;;;;;;;49.50;38.55;;;17.30;91.00;;;;;;5057606;28;20384;-76
2021/06/20 03:57:19;;;;;;;46.42;37.55;;;17.40;90.90;;;;;;5044953;28;20041;-73
2021/06/20 03:59:45;;;;;;;49.58;39.67;;;17.40;90.90;;;;;;5064102;28;20037;-73
2021/06/20 04:02:11;;;;;;;52.13;40.95;;;17.40;90.90;;;;;;5064885;28;20387;-77
2021/06/20 04:04:39;;;;;;;49.63;38.72;;;17.40;90.90;;;;;;5066645;28;20029;-74
2021/06/20 04:07:06;;;;;;;48.65;38.88;;;17.40;91.00;;;;;;5060415;28;20028;-72
2021/06/20 04:09:32;;;;;;;48.70;39.08;;;17.40;90.90;;;;;;5065509;28;20041;-73
2021/06/20 04:11:58;;;;;;;49.92;39.67;;;17.50;90.80;;;;;;5067140;28;20025;-74
2021/06/20 04:14:23;;;;;;;49.47;38.92;;;17.40;90.80;;;;;;5061566;28;20117;-73
2021/06/20 04:16:49;;;;;;;51.67;40.83;;;17.40;90.80;;;;;;5065004;28;20029;-77
2021/06/20 04:19:16;;;;;;;51.45;42.13;;;17.40;90.80;;;;;;5065544;28;20056;-73
2021/06/20 04:21:41;;;;;;;55.17;42.28;;;17.50;90.70;;;;;;5059517;28;20032;-73
2021/06/20 04:24:08;;;;;;;49.70;39.50;;;17.50;90.70;;;;;;5058005;28;20439;-73
2021/06/20 04:26:34;;;;;;;55.38;43.67;;;17.50;90.80;;;;;;5061457;28;20037;-73
2021/06/20 04:29:00;;;;;;;52.50;42.47;;;17.50;90.50;;;;;;5066763;28;20105;-73
2021/06/20 04:31:25;;;;;;;53.13;40.92;;;17.50;90.50;;;;;;5045918;28;20067;-74
2021/06/20 04:33:51;;;;;;;51.50;40.13;;;17.60;90.80;;;;;;5066381;28;20036;-77
2021/06/20 04:36:17;;;;;;;54.40;42.45;;;17.60;90.80;;;;;;5064603;28;20135;-81
2021/06/20 04:38:47;;;;;;;52.55;41.08;;;17.60;90.70;;;;;;5064662;28;20033;-73
2021/06/20 04:41:15;;;;;;;49.80;38.97;;;17.60;90.80;;;;;;5060066;28;20036;-75
2021/06/20 04:43:56;;;;;;;49.25;38.60;;;17.60;90.90;;;;;;5047929;28;20036;-73
2021/06/20 04:46:36;;;;;;;50.88;39.38;;;17.60;90.40;;;;;;5057669;28;20492;-73
2021/06/20 04:49:07;;;;;;;49.10;37.67;;;17.60;90.60;;;;;;5059817;28;20048;-75
2021/06/20 04:51:38;;;;;;;47.97;36.40;;;17.60;90.50;;;;;;5067253;28;20025;-72
2021/06/20 04:54:04;;;;;;;45.08;35.72;;;17.60;90.60;;;;;;5067285;28;20021;-73
2021/06/20 04:56:30;;;;;;;46.33;33.95;;;17.60;90.60;;;;;;5063466;28;20032;-74
2021/06/20 04:58:56;;;;;;;45.17;36.00;;;17.60;90.70;;;;;;5065234;28;20396;-75
2021/06/20 05:01:22;;;;;;;45.55;34.78;;;17.70;90.40;;;;;;5046335;28;20464;-74
2021/06/20 05:03:49;;;;;;;41.25;31.88;;;17.70;90.40;;;;;;5064712;28;20025;-72
2021/06/20 05:06:15;;;;;;;37.55;30.40;;;17.70;90.30;;;;;;5062040;28;20032;-73
2021/06/20 05:08:40;;;;;;;38.03;29.35;;;17.80;90.50;;;;;;5064373;28;20029;-74
2021/06/20 05:11:06;;;;;;;37.92;29.52;;;17.90;90.40;;;;;;5066008;28;20050;-73
2021/06/20 05:13:32;;;;;;;37.42;29.17;;;17.90;89.80;;;;;;5068856;28;20024;-79
2021/06/20 05:15:58;;;;;;;33.72;27.33;;;18.00;89.90;;;;;;5067747;28;20604;-73
2021/06/20 05:18:23;;;;;;;36.38;28.42;;;18.00;89.90;;;;;;5065135;28;20045;-73
2021/06/20 05:20:50;;;;;;;34.10;27.30;;;18.10;89.60;;;;;;5065788;28;20044;-74
2021/06/20 05:23:16;;;;;;;33.00;26.67;;;18.10;89.50;;;;;;5062744;28;20112;-73
2021/06/20 05:25:41;;;;;;;32.38;25.88;;;18.20;89.30;;;;;;5060752;28;20119;-73
2021/06/20 05:28:07;;;;;;;34.17;25.70;;;18.30;89.00;;;;;;5061048;28;20036;-79
2021/06/20 05:30:33;;;;;;;30.35;24.10;;;18.30;88.80;;;;;;5063627;28;20044;-77
2021/06/20 05:32:59;;;;;;;31.73;23.95;;;18.40;88.70;;;;;;5066799;28;20126;-74
2021/06/20 05:35:25;;;;;;;31.02;23.67;;;18.50;88.50;;;;;;5066753;28;20044;-73
2021/06/20 05:37:50;;;;;;;27.35;22.52;;;18.60;88.40;;;;;;5049764;28;20040;-73
2021/06/20 05:40:16;;;;;;;26.35;20.90;;;18.70;87.80;;;;;;5068182;28;20143;-76
2021/06/20 05:42:42;;;;;;;28.30;21.00;;;18.70;87.20;;;;;;5067946;28;20041;-73
2021/06/20 05:45:08;;;;;;;26.00;20.50;;;18.70;86.80;;;;;;5053766;28;20403;-73
2021/06/20 05:47:34;;;;;;;25.88;20.00;;;18.60;86.80;;;;;;5068354;28;20029;-75
2021/06/20 05:50:00;;;;;;;26.63;18.98;;;18.60;87.00;;;;;;5063217;28;20047;-72
2021/06/20 05:52:26;;;;;;;28.38;21.75;;;18.50;87.40;;;;;;5059488;28;20035;-73
2021/06/20 05:54:52;;;;;;;29.80;20.45;;;18.50;87.50;;;;;;5065988;28;20127;-74
2021/06/20 05:57:18;;;;;;;30.13;21.40;;;18.50;87.60;;;;;;5065557;28;20191;-73
2021/06/20 05:59:45;;;;;;;30.63;22.63;;;18.50;87.60;;;;;;5067374;28;20045;-77
2021/06/20 06:02:11;;;;;;;28.70;20.75;;;18.50;87.40;;;;;;5065445;28;20038;-73
2021/06/20 06:04:38;;;;;;;37.05;23.00;;;18.60;87.40;;;;;;5066825;28;20040;-74
2021/06/20 06:07:04;;;;;;;31.58;22.17;;;18.50;86.80;;;;;;5065284;28;20106;-73
2021/06/20 06:09:30;;;;;;;34.28;24.05;;;18.60;87.20;;;;;;5065064;28;20510;-78
2021/06/20 06:11:56;;;;;;;37.25;24.10;;;18.60;87.10;;;;;;5065717;28;20468;-73
2021/06/20 06:14:23;;;;;;;34.70;23.70;;;18.60;86.80;;;;;;5042266;28;20110;-73
2021/06/20 06:16:49;;;;;;;38.28;26.17;;;18.80;87.00;;;;;;5063575;28;20085;-72
2021/06/20 06:19:16;;;;;;;38.92;25.67;;;18.70;86.40;;;;;;5063438;28;20043;-76
2021/06/20 06:21:42;;;;;;;37.55;26.50;;;18.70;86.80;;;;;;5066964;28;20025;-75
2021/06/20 06:24:08;;;;;;;37.95;25.80;;;18.80;86.60;;;;;;5060460;28;20052;-73
2021/06/20 06:26:34;;;;;;;41.90;28.05;;;19.10;86.60;;;;;;5064253;28;20032;-73
2021/06/20 06:29:00;;;;;;;42.80;28.90;;;19.30;85.50;;;;;;5062866;28;20516;-74
2021/06/20 06:31:26;;;;;;;42.17;29.30;;;19.50;84.90;;;;;;5063643;28;20052;-73
2021/06/20 06:33:52;;;;;;;41.05;28.70;;;19.70;84.40;;;;;;5046377;28;20033;-77
2021/06/20 06:36:18;;;;;;;44.38;31.60;;;19.90;84.40;;;;;;5062110;28;20033;-75
2021/06/20 06:38:44;;;;;;;42.35;30.42;;;20.30;83.00;;;;;;5064425;28;20110;-73
2021/06/20 06:41:09;;;;;;;42.70;30.10;;;20.30;82.30;;;;;;5064380;28;20471;-74
2021/06/20 06:43:35;;;;;;;41.15;30.00;;;20.40;81.70;;;;;;5065034;28;20035;-76
2021/06/20 06:46:01;;;;;;;42.35;30.02;;;20.30;80.90;;;;;;5063653;28;20428;-77
2021/06/20 06:48:26;;;;;;;40.40;30.52;;;20.50;81.10;;;;;;5062892;28;20191;-74
2021/06/20 06:50:52;;;;;;;36.47;26.27;;;20.70;80.90;;;;;;5065096;28;20414;-75
2021/06/20 06:53:18;;;;;;;33.85;24.80;;;21.10;79.10;;;;;;5062783;28;20047;-74
2021/06/20 06:55:44;;;;;;;29.73;23.85;;;21.30;77.90;;;;;;5064610;28;20050;-78
2021/06/20 06:58:09;;;;;;;27.08;19.98;;;21.40;77.20;;;;;;5061044;28;20036;-80
2021/06/20 07:00:35;;;;;;;23.58;18.33;;;21.40;75.60;;;;;;5061443;28;20621;-74
2021/06/20 07:03:01;;;;;;;25.73;18.05;;;21.50;75.00;;;;;;5065161;28;20460;-73
2021/06/20 07:05:27;;;;;;;20.58;16.75;;;21.60;75.80;;;;;;5062092;28;20502;-75
2021/06/20 07:07:54;;;;;;;18.25;15.23;;;21.80;74.70;;;;;;5061952;28;20024;-70
2021/06/20 07:10:20;;;;;;;16.38;14.43;;;22.10;73.30;;;;;;5062872;28;20037;-69
2021/06/20 07:12:46;;;;;;;18.98;14.55;;;22.30;72.20;;;;;;5062155;28;20035;-72
2021/06/20 07:15:12;;;;;;;19.77;15.20;;;22.30;71.80;;;;;;5061907;28;20056;-71
2021/06/20 07:17:38;;;;;;;21.73;16.52;;;22.10;72.20;;;;;;5062638;28;20112;-70
2021/06/20 07:20:07;;;;;;;19.17;13.90;;;22.10;73.30;;;;;;5062152;28;20025;-70
2021/06/20 07:22:34;;;;;;;16.10;13.55;;;22.10;73.00;;;;;;5061233;28;20029;-73
2021/06/20 07:25:00;;;;;;;15.20;12.25;;;22.10;73.90;;;;;;5063054;28;20033;-69
2021/06/20 07:27:25;;;;;;;13.40;10.95;;;22.30;73.90;;;;;;5063034;28;20560;-70
2021/06/20 07:29:51;;;;;;;15.45;11.00;;;22.20;71.00;;;;;;5062201;28;20538;-71
2021/06/20 07:32:17;;;;;;;13.18;9.75;;;22.00;72.30;;;;;;5064276;28;20028;-71
2021/06/20 07:34:42;;;;;;;12.00;9.13;;;21.80;72.40;;;;;;5062893;28;20487;-75
2021/06/20 07:37:08;;;;;;;13.90;9.65;;;21.80;72.90;;;;;;5063727;28;20495;-70
2021/06/20 07:39:34;;;;;;;11.90;9.15;;;21.60;72.90;;;;;;5059897;28;20110;-70
2021/06/20 07:42:01;;;;;;;12.10;9.98;;;21.60;73.60;;;;;;5059401;28;20098;-70
2021/06/20 07:44:27;;;;;;;12.50;9.98;;;21.60;72.80;;;;;;5062765;28;20063;-74
2021/06/20 07:46:52;;;;;;;14.63;10.27;;;21.90;72.50;;;;;;5063995;28;20036;-74
2021/06/20 07:49:19;;;;;;;10.05;8.77;;;22.10;72.20;;;;;;5063335;28;20426;-69
2021/06/20 07:51:45;;;;;;;9.65;7.47;;;22.20;70.70;;;;;;5062251;28;20107;-73
2021/06/20 07:54:10;;;;;;;9.63;7.40;;;22.10;71.60;;;;;;5060071;28;20049;-70
2021/06/20 07:56:36;;;;;;;13.70;6.90;;;22.10;71.50;;;;;;5047083;28;20369;-70
2021/06/20 07:59:02;;;;;;;9.63;6.07;;;22.10;71.40;;;;;;5062580;28;20079;-70
2021/06/20 08:01:28;;;;;;;8.48;5.68;;;22.00;71.20;;;;;;5057396;28;20028;-71
2021/06/20 08:03:54;;;;;;;7.90;5.03;;;22.10;71.60;;;;;;5059342;28;20264;-70
2021/06/20 08:06:20;;;;;;;9.40;5.50;;;22.50;69.70;;;;;;5055815;28;20037;-72
2021/06/20 08:08:46;;;;;;;7.47;5.15;;;22.90;68.30;;;;;;5045218;28;20122;-71
2021/06/20 08:11:12;;;;;;;6.78;4.10;;;22.90;67.60;;;;;;5050464;28;20540;-74
2021/06/20 08:13:38;;;;;;;9.20;4.68;;;22.90;67.60;;;;;;5051556;28;20123;-73
2021/06/20 08:16:03;;;;;;;7.25;4.65;;;22.90;67.70;;;;;;5054357;28;20429;-72
2021/06/20 08:18:29;;;;;;;8.27;4.63;;;22.80;67.80;;;;;;5055369;28;20041;-71
2021/06/20 08:20:55;;;;;;;9.68;5.00;;;23.10;68.60;;;;;;5055853;28;20062;-73
2021/06/20 08:23:22;;;;;;;7.22;3.60;;;23.20;67.60;;;;;;5052139;28;20538;-76
2021/06/20 08:25:47;;;;;;;5.95;3.60;;;23.10;65.80;;;;;;5058577;28;20786;-74
2021/06/20 08:28:13;;;;;;;6.22;4.03;;;23.20;66.50;;;;;;5061292;28;20127;-73
2021/06/20 08:30:39;;;;;;;6.85;4.43;;;23.30;66.50;;;;;;5055884;28;20042;-73
2021/06/20 08:33:05;;;;;;;7.32;3.80;;;23.30;66.40;;;;;;5051151;28;20040;-73
2021/06/20 08:35:30;;;;;;;5.90;3.70;;;23.10;67.00;;;;;;5058193;28;20107;-72
2021/06/20 08:37:56;;;;;;;6.28;3.78;;;23.20;66.50;;;;;;5062757;28;20053;-73
2021/06/20 08:40:22;;;;;;;6.68;3.80;;;23.20;66.20;;;;;;5060028;28;20508;-78
2021/06/20 08:42:47;;;;;;;5.57;3.90;;;23.40;66.60;;;;;;5063068;28;20075;-71
2021/06/20 08:45:15;;;;;;;6.88;4.03;;;23.60;65.20;;;;;;5062233;28;20033;-75
2021/06/20 08:47:41;;;;;;;5.97;3.60;;;23.80;64.70;;;;;;5061504;28;20025;-72
2021/06/20 08:50:08;;;;;;;8.63;3.42;;;24.10;61.90;;;;;;5059973;28;20037;-72
2021/06/20 08:52:33;;;;;;;5.90;3.45;;;24.30;61.70;;;;;;5059134;28;20052;-76
2021/06/20 08:55:07;;;;;;;5.82;3.22;;;24.50;61.10;;;;;;5062718;28;20079;-73
2021/06/20 08:57:36;;;;;;;5.80;3.60;;;24.60;62.00;;;;;;5057190;28;20035;-70
2021/06/20 09:00:05;;;;;;;7.10;3.50;;;24.30;62.20;;;;;;5061655;28;20123;-73
2021/06/20 09:02:31;;;;;;;6.25;3.17;;;24.40;61.50;;;;;;5058098;28;20103;-70
2021/06/20 09:04:59;;;;;;;5.60;3.35;;;24.50;60.70;;;;;;5058657;28;20139;-71
2021/06/20 09:07:29;;;;;;;4.35;2.70;;;24.60;59.80;;;;;;5060846;28;20024;-72
2021/06/20 09:09:55;;;;;;;4.43;2.80;;;25.00;59.20;;;;;;5061182;28;20482;-69
2021/06/20 09:12:21;;;;;;;10.35;3.22;;;24.60;57.80;;;;;;5060811;28;20032;-69
2021/06/20 09:14:49;;;;;;;6.20;2.80;;;24.70;58.70;;;;;;5063667;28;20051;-71
2021/06/20 09:17:28;;;;;;;6.85;3.22;;;25.20;57.40;;;;;;5063069;28;20375;-69
2021/06/20 09:19:57;;;;;;;4.40;3.03;;;25.40;56.60;;;;;;5057369;28;20041;-70
2021/06/20 09:22:23;;;;;;;5.88;3.00;;;25.10;57.50;;;;;;5060852;28;20032;-70
2021/06/20 09:25:05;;;;;;;5.20;3.20;;;25.40;57.50;;;;;;5057606;28;20089;-70
2021/06/20 09:27:32;;;;;;;4.80;2.90;;;25.50;57.00;;;;;;5060713;28;20119;-69
2021/06/20 09:30:15;;;;;;;4.88;3.10;;;25.80;54.00;;;;;;5059579;28;20414;-73
2021/06/20 09:33:01;;;;;;;7.30;3.30;;;26.00;55.40;;;;;;5055032;28;20539;-72
2021/06/20 09:35:41;;;;;;;5.05;3.45;;;26.10;55.90;;;;;;5060459;28;20537;-70
2021/06/20 09:38:09;;;;;;;6.05;3.75;;;26.10;54.80;;;;;;5043091;28;20266;-70
2021/06/20 09:40:34;;;;;;;7.00;4.07;;;25.50;57.60;;;;;;5047867;28;20036;-74
2021/06/20 09:43:11;;;;;;;7.60;3.53;;;25.30;56.70;;;;;;5049266;28;20041;-71
2021/06/20 09:45:45;;;;;;;7.32;4.00;;;25.00;58.30;;;;;;5048955;28;20023;-74
2021/06/20 09:48:24;;;;;;;7.95;3.88;;;24.90;57.60;;;;;;5048558;28;20028;-74
2021/06/20 09:50:50;;;;;;;6.60;4.38;;;23.90;58.80;;;;;;5045526;28;20037;-71
2021/06/20 09:53:20;;;;;;;6.68;4.15;;;23.30;61.70;;;;;;5046396;28;20055;-71
2021/06/20 09:55:46;;;;;;;5.93;4.05;;;23.50;63.60;;;;;;5046709;28;20116;-73
2021/06/20 09:58:11;;;;;;;6.25;4.13;;;23.50;62.10;;;;;;5051355;28;20557;-70
2021/06/20 10:00:39;;;;;;;5.95;3.67;;;24.30;61.30;;;;;;5047945;28;20033;-71
2021/06/20 10:03:06;;;;;;;7.22;4.00;;;24.70;59.80;;;;;;5047873;28;20087;-74
2021/06/20 10:05:31;;;;;;;5.82;3.40;;;24.70;58.10;;;;;;5046622;28;20040;-70
2021/06/20 10:08:00;;;;;;;5.80;3.60;;;25.00;56.60;;;;;;5048364;28;20029;-72
2021/06/20 10:10:26;;;;;;;7.22;4.20;;;24.70;58.20;;;;;;5050427;28;20105;-74
2021/06/20 10:12:51;;;;;;;5.90;4.13;;;24.20;58.40;;;;;;5048489;28;20328;-70
2021/06/20 10:15:19;;;;;;;7.57;3.90;;;24.30;59.90;;;;;;5045193;28;20440;-74
2021/06/20 10:17:50;;;;;;;8.52;4.07;;;24.90;58.30;;;;;;5052036;28;20032;-72
2021/06/20 10:20:17;;;;;;;6.85;3.90;;;24.60;58.40;;;;;;5050460;28;20067;-72
2021/06/20 10:22:45;;;;;;;6.65;3.88;;;25.10;57.30;;;;;;5051977;28;20025;-74
2021/06/20 10:25:25;;;;;;;4.85;3.30;;;25.30;58.00;;;;;;5062364;28;20037;-71
2021/06/20 10:28:13;;;;;;;11.52;3.38;;;25.70;55.50;;;;;;5060522;28;20025;-70
2021/06/20 10:30:43;;;;;;;6.32;3.38;;;25.60;54.70;;;;;;5042391;28;20472;-73
2021/06/20 10:33:26;;;;;;;7.00;4.25;;;25.50;56.80;;;;;;5060901;28;20064;-71
2021/06/20 10:36:11;;;;;;;5.47;3.60;;;25.00;57.80;;;;;;5058407;28;20042;-70
2021/06/20 10:38:42;;;;;;;8.60;4.88;;;24.90;57.00;;;;;;5053237;28;20037;-71
2021/06/20 10:41:19;;;;;;;6.32;4.10;;;24.30;59.70;;;;;;5063448;28;20029;-71
2021/06/20 10:43:57;;;;;;;6.40;4.30;;;24.60;59.30;;;;;;5062510;28;20024;-71
2021/06/20 10:46:24;;;;;;;6.70;4.45;;;24.70;58.40;;;;;;5066307;28;20067;-71
2021/06/20 10:48:50;;;;;;;6.35;3.85;;;24.30;59.40;;;;;;5061220;28;20029;-70
2021/06/20 10:51:24;;;;;;;7.07;3.63;;;24.60;59.60;;;;;;5064667;28;20131;-71
2021/06/20 10:53:50;;;;;;;;;;;25.20;57.30;;;;;;5061928;28;20444;-70
2021/06/20 10:56:24;;;;;;;5.25;2.67;;;25.60;54.60;;;;;;5063724;28;19920;-69
2021/06/20 10:58:52;;;;;;;4.97;2.90;;;25.60;54.10;;;;;;5063420;28;20036;-70
2021/06/20 11:01:20;;;;;;;5.50;3.15;;;25.10;53.60;;;;;;5062062;28;20468;-70
2021/06/20 11:03:51;;;;;;;5.38;2.85;;;24.60;56.90;;;;;;5057093;28;20040;-71
2021/06/20 11:06:19;;;;;;;4.65;2.78;;;24.40;56.00;;;;;;5061138;28;20474;-75
2021/06/20 11:08:56;;;;;;;6.63;3.03;;;24.50;57.70;;;;;;5065089;28;20040;-72
2021/06/20 11:11:24;;;;;;;4.38;2.63;;;24.50;55.90;;;;;;5063905;28;20044;-71
2021/06/20 11:13:56;;;;;;;3.90;2.58;;;24.70;55.20;;;;;;5059138;28;20020;-71
2021/06/20 11:16:33;;;;;;;5.07;2.75;;;25.50;54.20;;;;;;5062828;28;20044;-71
2021/06/20 11:19:08;;;;;;;4.47;2.80;;;26.00;53.30;;;;;;5062100;28;20028;-71
2021/06/20 11:21:36;;;;;;;3.83;2.63;;;26.00;52.10;;;;;;5060475;28;20028;-74
2021/06/20 11:24:02;;;;;;;6.13;2.45;;;25.60;53.10;;;;;;5061709;28;20067;-75
2021/06/20 11:26:27;;;;;;;4.95;2.85;;;25.80;51.90;;;;;;5060644;28;20258;-75
2021/06/20 11:29:20;;;;;;;4.32;2.88;;;25.30;53.60;;;;;;5061671;28;20382;-71
2021/06/20 11:31:49;;;;;;;4.15;2.70;;;25.40;52.60;;;;;;5058680;28;20037;-75
2021/06/20 11:34:15;;;;;;;5.70;2.40;;;25.60;53.60;;;;;;5058681;28;20037;-73
2021/06/20 11:36:40;;;;;;;3.30;2.08;;;25.70;52.50;;;;;;5061206;28;20087;-74
2021/06/20 11:39:11;;;;;;;2.90;1.92;;;26.10;52.00;;;;;;5055999;28;20124;-71
2021/06/20 11:41:48;;;;;;;5.00;2.38;;;26.60;51.70;;;;;;5063322;28;20047;-71
2021/06/20 11:44:15;;;;;;;5.55;2.70;;;27.10;49.80;;;;;;5050450;28;20510;-71
2021/06/20 11:46:42;;;;;;;3.38;2.10;;;27.00;50.20;;;;;;5055623;28;20048;-75
2021/06/20 11:49:16;;;;;;;2.13;1.55;;;27.00;47.50;;;;;;5055818;28;20032;-72
2021/06/20 11:51:45;;;;;;;4.70;2.10;;;26.30;50.00;;;;;;5057730;28;20378;-78
2021/06/20 11:54:13;;;;;;;4.30;2.45;;;26.00;51.10;;;;;;5052731;28;20052;-72
2021/06/20 11:56:39;;;;;;;4.40;2.40;;;25.70;51.80;;;;;;5056948;28;20036;-69
2021/06/20 11:59:06;;;;;;;3.95;2.10;;;25.60;51.70;;;;;;5063085;28;20028;-72
2021/06/20 12:01:44;;;;;;;4.18;2.17;;;25.40;52.10;;;;;;5049957;28;20036;-71
2021/06/20 12:04:11;;;;;;;3.60;2.42;;;25.60;52.90;;;;;;5066173;28;20126;-71
2021/06/20 12:06:38;;;;;;;5.25;2.40;;;25.90;52.90;;;;;;5063849;28;20037;-70
2021/06/20 12:09:06;;;;;;;3.63;2.30;;;26.10;52.20;;;;;;5070038;28;20036;-70
2021/06/20 12:11:33;;;;;;;4.03;2.35;;;26.10;51.50;;;;;;5064821;28;20052;-70
2021/06/20 12:13:59;;;;;;;4.68;2.05;;;25.70;51.50;;;;;;5066171;28;20460;-71
2021/06/20 12:16:25;;;;;;;3.47;2.00;;;25.50;51.50;;;;;;5062350;28;20081;-72
2021/06/20 12:18:52;;;;;;;4.05;1.90;;;25.50;52.40;;;;;;5067949;28;20085;-72
2021/06/20 12:21:30;;;;;;;4.07;2.10;;;26.00;50.90;;;;;;5066705;28;20063;-71
2021/06/20 12:23:59;;;;;;;3.83;2.30;;;25.80;51.40;;;;;;5066176;28;20097;-71
2021/06/20 12:26:29;;;;;;;4.57;2.20;;;25.90;50.20;;;;;;5063549;28;20089;-71
2021/06/20 12:28:56;;;;;;;4.47;2.20;;;26.00;50.30;;;;;;5064229;28;20139;-72
2021/06/20 12:31:23;;;;;;;2.53;1.73;;;25.60;50.60;;;;;;5062350;28;20083;-72
2021/06/20 12:34:17;;;;;;;3.20;2.05;;;25.20;51.20;;;;;;5067498;28;20471;-71
2021/06/20 12:36:43;;;;;;;5.32;2.00;;;25.20;52.50;;;;;;5044161;28;20033;-71
2021/06/20 12:39:09;;;;;;;5.25;2.25;;;24.70;52.90;;;;;;5066434;28;20048;-71